Time;durP1;ratioP1;P1;durP2;ratioP2;P2;SDS_P1;SDS_P2;PMS_P1;PMS_P2;Temp;Humidity;BMP_temperature;BMP_pressure;BME280_temperature;BME280_humidity;BME280_pressure;Samples;Min_cycle;Max_cycle;Signal;HPM_P1;HPM_P2
2022/09/12 00:01:08;;;;;;;;;;;14.20;99.90;;;;;;4978085;28;19995;-78
2022/09/12 00:03:36;;;;;;;;;;;14.10;99.90;;;;;;4993154;28;20416;-76
2022/09/12 00:06:10;;;;;;;;;;;14.20;99.90;;;;;;4979469;28;19957;-77
2022/09/12 00:08:36;;;;;;;;;;;14.20;99.90;;;;;;4980235;28;19926;-76
2022/09/12 00:11:21;;;;;;;;;;;14.10;99.90;;;;;;4992654;28;19933;-79
2022/09/12 00:13:47;;;;;;;;;;;14.10;99.90;;;;;;5007281;28;20008;-79
2022/09/12 00:16:16;;;;;;;;;;;14.10;99.90;;;;;;4992479;28;19979;-82
2022/09/12 00:18:44;;;;;;;;;;;14.10;99.90;;;;;;5005932;28;19925;-77
2022/09/12 00:21:10;;;;;;;;;;;14.10;99.90;;;;;;4990766;28;19964;-78
2022/09/12 00:23:38;;;;;;;;;;;14.10;99.90;;;;;;4990742;28;19964;-76
2022/09/12 00:26:05;;;;;;;;;;;14.10;99.90;;;;;;4991592;28;19972;-76
2022/09/12 00:28:43;;;;;;;;;;;14.10;99.90;;;;;;5010594;28;19986;-77
2022/09/12 00:31:10;;;;;;;;;;;14.10;99.90;;;;;;4992504;28;19928;-78
2022/09/12 00:36:58;;;;;;;;;;;14.10;99.90;;;;;;5029456;28;20398;-77
2022/09/12 00:39:24;;;;;;;;;;;14.00;99.90;;;;;;5001446;28;20583;-76
2022/09/12 00:41:50;;;;;;;;;;;14.00;99.90;;;;;;5013762;28;19925;-77
2022/09/12 00:44:22;;;;;;;;;;;14.00;99.90;;;;;;4994777;28;20015;-77
2022/09/12 00:46:51;;;;;;;;;;;14.00;99.90;;;;;;4997568;28;20436;-77
2022/09/12 00:49:43;;;;;;;;;;;13.90;99.90;;;;;;5010248;28;20474;-77
2022/09/12 00:52:12;;;;;;;;;;;13.90;99.90;;;;;;4964845;28;19926;-76
2022/09/12 00:54:41;;;;;;;;;;;13.90;99.90;;;;;;4994969;28;19950;-77
2022/09/12 00:57:08;;;;;;;;;;;13.90;99.90;;;;;;4994001;28;19926;-77
2022/09/12 00:59:39;;;;;;;;;;;13.90;99.90;;;;;;5006746;28;19995;-76
2022/09/12 01:02:06;;;;;;;;;;;13.90;99.90;;;;;;5009441;28;20350;-77
2022/09/12 01:04:34;;;;;;;;;;;13.90;99.90;;;;;;4975459;28;20596;-77
2022/09/12 01:06:59;;;;;;;;;;;13.80;99.90;;;;;;4994921;28;19925;-80
2022/09/12 01:09:25;;;;;;;;;;;13.80;99.90;;;;;;4982223;28;19925;-77
2022/09/12 01:11:52;;;;;;;;;;;13.80;99.90;;;;;;4968356;28;19925;-77
2022/09/12 01:14:19;;;;;;;;;;;13.80;99.90;;;;;;4969233;28;19926;-78
2022/09/12 01:16:46;;;;;;;;;;;13.70;99.90;;;;;;4974542;28;19929;-77
2022/09/12 01:19:27;;;;;;;;;;;13.70;99.90;;;;;;4988437;28;20008;-78
2022/09/12 01:22:12;;;;;;;;;;;13.70;99.90;;;;;;4988431;28;20060;-77
2022/09/12 01:24:48;;;;;;;;;;;13.70;99.90;;;;;;4990700;28;19926;-77
2022/09/12 01:27:14;;;;;;;;;;;13.70;99.90;;;;;;4993572;28;19925;-76
2022/09/12 01:29:51;;;;;;;;;;;13.60;99.90;;;;;;4974947;28;19940;-76
2022/09/12 01:32:19;;;;;;;;;;;13.60;99.90;;;;;;4976822;28;19937;-77
2022/09/12 01:34:54;;;;;;;;;;;13.50;99.90;;;;;;4989142;28;19930;-75
2022/09/12 01:37:32;;;;;;;;;;;13.50;99.90;;;;;;4973598;28;20020;-76
2022/09/12 01:40:01;;;;;;;;;;;13.50;99.90;;;;;;4974061;28;19969;-76
2022/09/12 01:42:27;;;;;;;;;;;13.50;99.90;;;;;;4986467;28;20400;-76
2022/09/12 01:44:56;;;;;;;;;;;13.40;99.90;;;;;;4974215;28;19929;-75
2022/09/12 01:47:21;;;;;;;;;;;13.40;99.90;;;;;;4974633;28;20329;-78
2022/09/12 01:49:56;;;;;;;;;;;13.40;99.90;;;;;;4988713;28;19995;-77
2022/09/12 01:52:33;;;;;;;;;;;13.40;99.90;;;;;;4980546;28;20613;-80
2022/09/12 01:55:08;;;;;;;;;;;13.30;99.90;;;;;;4958497;28;22104;-77
2022/09/12 01:57:36;;;;;;;;;;;13.40;99.90;;;;;;4973918;28;19971;-78
2022/09/12 02:00:06;;;;;;;;;;;13.30;99.90;;;;;;4971928;28;19929;-77
2022/09/12 02:02:37;;;;;;;;;;;13.30;99.90;;;;;;4989852;28;19929;-76
2022/09/12 02:08:27;;;;;;;;;;;13.30;99.90;;;;;;5025598;23;19983;-78
2022/09/12 02:11:13;;;;;;;;;;;13.30;99.90;;;;;;5000335;28;20447;-83
2022/09/12 02:17:30;;;;;;;;;;;13.30;99.90;;;;;;5017466;28;19917;-77
2022/09/12 02:20:01;;;;;;;;;;;13.30;99.90;;;;;;4997715;28;19929;-77
2022/09/12 02:22:29;;;;;;;;;;;13.30;99.90;;;;;;5003815;28;19947;-78
2022/09/12 02:24:57;;;;;;;;;;;13.20;99.90;;;;;;4994378;28;19986;-77
2022/09/12 02:27:29;;;;;;;;;;;13.20;99.90;;;;;;4981243;28;19922;-76
2022/09/12 02:29:55;;;;;;;;;;;13.20;99.90;;;;;;5006209;28;19929;-77
2022/09/12 02:32:50;;;;;;;;;;;13.10;99.90;;;;;;4998099;28;19933;-77
2022/09/12 02:35:30;;;;;;;;;;;13.10;99.90;;;;;;4967179;28;19979;-76
2022/09/12 02:37:58;;;;;;;;;;;13.10;99.90;;;;;;4989114;28;20407;-77
2022/09/12 02:40:24;;;;;;;;;;;13.10;99.90;;;;;;4988575;28;20012;-78
2022/09/12 02:42:51;;;;;;;;;;;13.10;99.90;;;;;;4987029;28;20020;-77
2022/09/12 02:45:17;;;;;;;;;;;13.00;99.90;;;;;;4982430;28;19921;-78
2022/09/12 02:47:55;;;;;;;;;;;13.00;99.90;;;;;;4980285;28;19955;-79
2022/09/12 02:50:21;;;;;;;;;;;13.00;99.90;;;;;;4986252;28;19964;-78
2022/09/12 02:52:47;;;;;;;;;;;13.00;99.90;;;;;;4987840;28;19961;-79
2022/09/12 02:55:15;;;;;;;;;;;13.00;99.90;;;;;;4993639;28;19922;-79
2022/09/12 03:01:24;;;;;;;;;;;13.00;99.90;;;;;;5005826;28;19924;-78
2022/09/12 03:03:55;;;;;;;;;;;12.90;99.90;;;;;;4977348;28;20380;-77
2022/09/12 03:06:36;;;;;;;;;;;12.90;99.90;;;;;;4988635;28;19979;-78
2022/09/12 03:09:10;;;;;;;;;;;12.90;99.90;;;;;;4989038;28;19933;-78
2022/09/12 03:11:47;;;;;;;;;;;12.90;99.90;;;;;;4969170;28;19988;-77
2022/09/12 03:14:21;;;;;;;;;;;12.90;99.90;;;;;;4967379;28;20503;-78
2022/09/12 03:16:47;;;;;;;;;;;12.80;99.90;;;;;;4983259;28;20408;-78
2022/09/12 03:19:22;;;;;;;;;;;12.80;99.90;;;;;;4967657;28;19980;-79
2022/09/12 03:21:57;;;;;;;;;;;12.80;99.90;;;;;;4967157;28;19930;-79
2022/09/12 03:24:25;;;;;;;;;;;12.80;99.90;;;;;;4966405;28;20405;-79
2022/09/12 03:26:55;;;;;;;;;;;12.80;99.90;;;;;;4968941;28;19929;-78
2022/09/12 03:36:38;;;;;;;;;;;12.80;99.90;;;;;;5002711;28;20336;-77
2022/09/12 03:42:19;;;;;;;;;;;12.90;99.90;;;;;;4984807;28;19930;-79
2022/09/12 03:44:45;;;;;;;;;;;12.90;99.90;;;;;;4960671;28;19979;-79
2022/09/12 03:47:11;;;;;;;;;;;12.90;99.90;;;;;;4968411;28;20793;-78
2022/09/12 03:49:37;;;;;;;;;;;12.80;99.90;;;;;;4951530;28;20016;-79
2022/09/12 03:52:03;;;;;;;;;;;12.80;99.90;;;;;;4951848;28;20401;-78
2022/09/12 03:54:29;;;;;;;;;;;12.80;99.90;;;;;;4952879;28;19984;-78
2022/09/12 03:56:54;;;;;;;;;;;12.80;99.90;;;;;;4964829;28;20195;-77
2022/09/12 03:59:20;;;;;;;;;;;12.80;99.90;;;;;;4939855;28;19950;-78
2022/09/12 04:01:46;;;;;;;;;;;12.80;99.90;;;;;;4987061;28;19929;-78
2022/09/12 04:04:12;;;;;;;;;;;12.70;99.90;;;;;;4967083;28;20024;-78
2022/09/12 04:06:38;;;;;;;;;;;12.70;99.90;;;;;;4955236;28;19956;-78
2022/09/12 04:09:04;;;;;;;;;;;12.70;99.90;;;;;;4983857;28;20051;-78
2022/09/12 04:11:31;;;;;;;;;;;12.70;99.90;;;;;;5003690;28;19925;-79
2022/09/12 04:13:56;;;;;;;;;;;12.70;99.90;;;;;;5004156;28;19926;-79
2022/09/12 04:16:22;;;;;;;;;;;12.70;99.90;;;;;;4975752;28;19986;-81
2022/09/12 04:18:48;;;;;;;;;;;12.70;99.90;;;;;;4971976;28;20684;-78
2022/09/12 04:21:16;;;;;;;;;;;12.70;99.90;;;;;;4972545;28;20282;-79
2022/09/12 04:23:42;;;;;;;;;;;12.70;99.90;;;;;;5005516;28;19925;-79
2022/09/12 04:26:09;;;;;;;;;;;12.70;99.90;;;;;;4974731;28;19932;-78
2022/09/12 04:28:35;;;;;;;;;;;12.60;99.90;;;;;;5007674;28;19929;-79
2022/09/12 04:31:03;;;;;;;;;;;12.60;99.90;;;;;;5007250;28;19930;-79
2022/09/12 04:33:29;;;;;;;;;;;12.60;99.90;;;;;;4988337;28;20024;-79
2022/09/12 04:35:55;;;;;;;;;;;12.60;99.90;;;;;;5004964;28;20060;-79
2022/09/12 04:38:21;;;;;;;;;;;12.60;99.90;;;;;;4970555;28;20436;-78
2022/09/12 04:40:47;;;;;;;;;;;12.50;99.90;;;;;;4987074;28;19995;-79
2022/09/12 04:43:13;;;;;;;;;;;12.60;99.90;;;;;;4990469;28;19972;-78
2022/09/12 04:45:41;;;;;;;;;;;12.60;99.90;;;;;;4974616;28;19938;-78
2022/09/12 04:48:07;;;;;;;;;;;12.60;99.90;;;;;;4989310;28;20226;-81
2022/09/12 04:50:33;;;;;;;;;;;12.70;99.90;;;;;;4988286;28;19925;-79
2022/09/12 04:52:59;;;;;;;;;;;12.70;99.90;;;;;;4987848;28;20015;-80
2022/09/12 04:55:25;;;;;;;;;;;12.70;99.90;;;;;;5007827;28;19936;-79
2022/09/12 04:57:51;;;;;;;;;;;12.80;99.90;;;;;;4974747;28;19994;-79
2022/09/12 05:00:17;;;;;;;;;;;12.80;99.90;;;;;;5001232;28;19926;-79
2022/09/12 05:02:43;;;;;;;;;;;12.80;99.90;;;;;;5006744;28;19995;-79
2022/09/12 05:05:09;;;;;;;;;;;12.90;99.90;;;;;;4991981;28;19926;-79
2022/09/12 05:07:34;;;;;;;;;;;12.90;99.90;;;;;;4985410;28;19926;-78
2022/09/12 05:10:02;;;;;;;;;;;12.90;99.90;;;;;;4981625;28;19930;-80
2022/09/12 05:12:27;;;;;;;;;;;12.90;99.90;;;;;;4970642;28;20363;-79
2022/09/12 05:14:53;;;;;;;;;;;13.00;99.90;;;;;;4967760;28;20020;-78
2022/09/12 05:17:19;;;;;;;;;;;13.00;99.90;;;;;;4968529;28;19921;-78
2022/09/12 05:19:46;;;;;;;;;;;13.10;99.90;;;;;;4982878;28;20411;-78
2022/09/12 05:22:12;;;;;;;;;;;13.20;99.90;;;;;;4966356;28;19930;-80
2022/09/12 05:24:41;;;;;;;;;;;13.20;99.90;;;;;;4969890;28;20020;-78
2022/09/12 05:27:07;;;;;;;;;;;13.30;99.90;;;;;;4957298;28;19925;-77
2022/09/12 05:29:33;;;;;;;;;;;13.30;99.90;;;;;;4983674;28;19921;-77
2022/09/12 05:31:59;;;;;;;;;;;13.40;99.90;;;;;;4989553;28;19933;-79
2022/09/12 05:34:26;;;;;;;;;;;13.50;99.90;;;;;;4956725;28;19929;-78
2022/09/12 05:36:52;;;;;;;;;;;13.60;99.90;;;;;;4959001;28;19953;-77
2022/09/12 05:39:18;;;;;;;;;;;13.60;99.90;;;;;;4957387;28;20384;-78
2022/09/12 05:41:44;;;;;;;;;;;13.70;99.90;;;;;;4969373;28;19933;-79
2022/09/12 05:44:11;;;;;;;;;;;13.70;99.90;;;;;;4966982;28;19926;-78
2022/09/12 05:46:38;;;;;;;;;;;13.70;99.90;;;;;;4969551;28;19930;-77
2022/09/12 05:49:05;;;;;;;;;;;13.80;99.90;;;;;;4981335;28;20009;-79
2022/09/12 05:51:32;;;;;;;;;;;13.80;99.90;;;;;;4981493;28;19932;-80
2022/09/12 05:53:59;;;;;;;;;;;13.80;99.90;;;;;;4972619;28;19925;-79
2022/09/12 05:56:26;;;;;;;;;;;13.80;99.90;;;;;;4969466;28;19964;-78
2022/09/12 05:58:55;;;;;;;;;;;13.90;99.90;;;;;;4968360;28;19929;-78
2022/09/12 06:01:22;;;;;;;;;;;13.90;99.90;;;;;;4982607;28;19934;-78
2022/09/12 06:03:49;;;;;;;;;;;13.90;99.90;;;;;;4970366;28;19952;-78
2022/09/12 06:06:17;;;;;;;;;;;14.00;99.90;;;;;;4968640;28;19984;-81
2022/09/12 06:08:44;;;;;;;;;;;14.00;99.90;;;;;;4986459;28;20021;-79
2022/09/12 06:11:11;;;;;;;;;;;14.00;99.90;;;;;;4979676;28;20043;-80
2022/09/12 06:13:38;;;;;;;;;;;14.10;99.90;;;;;;5000814;28;19934;-80
2022/09/12 06:16:10;;;;;;;;;;;14.10;99.90;;;;;;5003574;28;20407;-79
2022/09/12 06:18:37;;;;;;;;;;;14.10;99.90;;;;;;5000079;28;19933;-80
2022/09/12 06:21:04;;;;;;;;;;;14.10;99.90;;;;;;4983884;28;20434;-79
2022/09/12 06:23:30;;;;;;;;;;;14.20;99.90;;;;;;5002680;28;19925;-83
2022/09/12 06:25:56;;;;;;;;;;;14.20;99.90;;;;;;4989031;28;19987;-78
2022/09/12 06:28:21;;;;;;;;;;;14.20;99.90;;;;;;4983185;28;20289;-78
2022/09/12 06:30:47;;;;;;;;;;;14.30;99.90;;;;;;4966380;28;20391;-78
2022/09/12 06:33:14;;;;;;;;;;;14.30;99.90;;;;;;4987150;28;20203;-79
2022/09/12 06:35:40;;;;;;;;;;;14.30;99.90;;;;;;4985610;28;19952;-79
2022/09/12 06:38:06;;;;;;;;;;;14.40;99.90;;;;;;4964169;28;20543;-79
2022/09/12 06:40:32;;;;;;;;;;;14.40;99.90;;;;;;4965587;28;20579;-80
2022/09/12 06:42:58;;;;;;;;;;;14.50;99.90;;;;;;4994437;28;19977;-79
2022/09/12 06:45:24;;;;;;;;;;;14.50;99.90;;;;;;4964168;28;19930;-78
2022/09/12 06:47:50;;;;;;;;;;;14.50;99.90;;;;;;4976419;28;19980;-77
2022/09/12 06:50:16;;;;;;;;;;;14.60;99.90;;;;;;4995014;28;19929;-79
2022/09/12 06:52:43;;;;;;;;;;;14.60;99.90;;;;;;4996578;28;20471;-77
2022/09/12 06:55:09;;;;;;;;;;;14.60;99.90;;;;;;4997415;28;20025;-77
2022/09/12 06:57:37;;;;;;;;;;;14.70;99.90;;;;;;4989905;28;19930;-78
2022/09/12 07:00:04;;;;;;;;;;;14.70;99.90;;;;;;4992111;28;20379;-80
2022/09/12 07:02:30;;;;;;;;;;;14.70;99.90;;;;;;4961934;28;19945;-79
2022/09/12 07:04:56;;;;;;;;;;;14.70;99.90;;;;;;4992860;28;19925;-79
2022/09/12 07:07:21;;;;;;;;;;;14.80;99.90;;;;;;4981091;28;19940;-79
2022/09/12 07:09:48;;;;;;;;;;;14.80;99.90;;;;;;4947173;28;19990;-77
2022/09/12 07:12:14;;;;;;;;;;;14.80;99.90;;;;;;4978000;28;19929;-78
2022/09/12 07:14:40;;;;;;;;;;;14.80;99.90;;;;;;4959557;28;20633;-79
2022/09/12 07:17:07;;;;;;;;;;;14.90;99.90;;;;;;4973128;28;19929;-80
2022/09/12 07:19:33;;;;;;;;;;;14.90;99.90;;;;;;4961241;28;19940;-80
2022/09/12 07:22:00;;;;;;;;;;;15.00;99.90;;;;;;4954075;28;19926;-77
2022/09/12 07:24:26;;;;;;;;;;;15.00;99.90;;;;;;4959928;28;20380;-79
2022/09/12 07:26:51;;;;;;;;;;;15.10;99.90;;;;;;4962372;28;19987;-79
2022/09/12 07:29:17;;;;;;;;;;;15.10;99.90;;;;;;4964166;28;19945;-78
2022/09/12 07:31:43;;;;;;;;;;;15.20;99.90;;;;;;4960877;28;20003;-78
2022/09/12 07:34:09;;;;;;;;;;;15.30;99.90;;;;;;4960684;28;19940;-77
2022/09/12 07:36:36;;;;;;;;;;;15.30;99.90;;;;;;4947371;28;19933;-79
2022/09/12 07:39:03;;;;;;;;;;;15.40;99.90;;;;;;4978997;28;19933;-80
2022/09/12 07:41:29;;;;;;;;;;;;;;;;;;4945808;28;19977;-79
2022/09/12 07:43:56;;;;;;;;;;;15.60;99.90;;;;;;4979399;28;20033;-79
2022/09/12 07:46:23;;;;;;;;;;;15.70;99.90;;;;;;4978505;28;19933;-79
2022/09/12 07:48:50;;;;;;;;;;;15.70;99.90;;;;;;4951909;28;20470;-80
2022/09/12 07:51:17;;;;;;;;;;;15.80;99.90;;;;;;4961561;28;19941;-78
2022/09/12 07:53:43;;;;;;;;;;;15.80;99.90;;;;;;4960567;28;20040;-79
2022/09/12 07:56:09;;;;;;;;;;;15.90;99.90;;;;;;4973704;28;20061;-80
2022/09/12 07:58:36;;;;;;;;;;;15.90;99.90;;;;;;4955593;28;20545;-79
2022/09/12 08:01:07;;;;;;;;;;;15.90;99.90;;;;;;4960048;28;20533;-78
2022/09/12 08:03:33;;;;;;;;;;;15.90;99.90;;;;;;4976938;28;19983;-81
2022/09/12 08:06:09;;;;;;;;;;;16.00;99.90;;;;;;4975195;28;19929;-79
2022/09/12 08:08:37;;;;;;;;;;;16.00;99.90;;;;;;4978250;28;19940;-81
2022/09/12 08:11:04;;;;;;;;;;;16.10;99.90;;;;;;4978803;28;20211;-79
2022/09/12 08:13:31;;;;;;;;;;;16.20;99.90;;;;;;4993910;28;19929;-79
2022/09/12 08:15:58;;;;;;;;;;;16.20;99.90;;;;;;4994201;28;20008;-80
2022/09/12 08:18:27;;;;;;;;;;;16.30;99.90;;;;;;4988525;28;20291;-79
2022/09/12 08:20:57;;;;;;;;;;;16.30;99.90;;;;;;4992717;28;19929;-82
2022/09/12 08:23:23;;;;;;;;;;;16.30;99.90;;;;;;4972045;28;20414;-80
2022/09/12 08:25:50;;;;;;;;;;;16.40;99.90;;;;;;4985054;28;19933;-81
2022/09/12 08:28:16;;;;;;;;;;;16.40;99.90;;;;;;4966323;28;20009;-79
2022/09/12 08:30:41;;;;;;;;;;;16.40;99.90;;;;;;4967603;28;20001;-81
2022/09/12 08:33:07;;;;;;;;;;;16.40;99.90;;;;;;4959511;28;20292;-83
2022/09/12 08:35:35;;;;;;;;;;;16.50;99.90;;;;;;4977870;28;19936;-81
2022/09/12 08:38:01;;;;;;;;;;;16.50;99.90;;;;;;4977206;28;19929;-80
2022/09/12 08:40:27;;;;;;;;;;;16.50;99.90;;;;;;4977005;28;19936;-80
2022/09/12 08:43:16;;;;;;;;;;;16.50;99.90;;;;;;4971819;28;19930;-78
2022/09/12 08:45:45;;;;;;;;;;;16.60;99.90;;;;;;4950563;28;19934;-80
2022/09/12 08:48:11;;;;;;;;;;;16.70;99.90;;;;;;4975812;28;20048;-80
2022/09/12 08:50:38;;;;;;;;;;;16.70;99.90;;;;;;4986209;28;19952;-80
2022/09/12 08:53:09;;;;;;;;;;;16.90;99.90;;;;;;4979170;28;20292;-80
2022/09/12 08:55:35;;;;;;;;;;;17.00;99.90;;;;;;4989578;28;19968;-79
2022/09/12 08:58:09;;;;;;;;;;;17.10;99.90;;;;;;4994115;28;20498;-82
2022/09/12 09:00:56;;;;;;;;;;;17.30;99.90;;;;;;4993694;28;20012;-78
2022/09/12 09:03:43;;;;;;;;;;;17.40;99.90;;;;;;4951628;28;19936;-79
2022/09/12 09:06:25;;;;;;;;;;;17.40;99.90;;;;;;4977104;28;19929;-79
2022/09/12 09:09:10;;;;;;;;;;;17.40;99.90;;;;;;4998532;28;20352;-79
2022/09/12 09:11:44;;;;;;;;;;;17.50;99.90;;;;;;4997285;28;19929;-80
2022/09/12 09:17:00;;;;;;;;;;;17.50;99.90;;;;;;4997684;28;19936;-79
2022/09/12 09:19:29;;;;;;;;;;;17.50;99.90;;;;;;4980159;28;19937;-79
2022/09/12 09:22:04;;;;;;;;;;;17.60;99.90;;;;;;4982119;28;19937;-78
2022/09/12 09:24:38;;;;;;;;;;;17.70;99.90;;;;;;4997877;28;19944;-80
2022/09/12 09:27:23;;;;;;;;;;;17.80;99.90;;;;;;4995343;28;20285;-79
2022/09/12 09:29:51;;;;;;;;;;;17.90;99.90;;;;;;4996622;28;19929;-84
2022/09/12 09:32:17;;;;;;;;;;;18.00;99.90;;;;;;4999425;28;19929;-79
2022/09/12 09:34:44;;;;;;;;;;;18.10;99.90;;;;;;4978844;28;19930;-80
2022/09/12 09:37:13;;;;;;;;;;;18.20;99.90;;;;;;4974778;28;20401;-78
2022/09/12 09:39:47;;;;;;;;;;;18.40;99.90;;;;;;4994745;28;20040;-78
2022/09/12 09:42:27;;;;;;;;;;;18.50;99.90;;;;;;4995007;28;20733;-79
2022/09/12 09:44:55;;;;;;;;;;;18.60;99.90;;;;;;5011154;28;19930;-79
2022/09/12 09:47:21;;;;;;;;;;;18.80;99.90;;;;;;4976073;28;20432;-78
2022/09/12 09:49:47;;;;;;;;;;;18.90;99.90;;;;;;4964819;28;19929;-82
2022/09/12 09:52:14;;;;;;;;;;;19.20;99.90;;;;;;4975567;28;19933;-81
2022/09/12 09:54:43;;;;;;;;;;;19.40;99.90;;;;;;4995918;28;19929;-78
2022/09/12 09:57:28;;;;;;;;;;;19.70;99.90;;;;;;4991388;28;20324;-79
2022/09/12 09:59:55;;;;;;;;;;;19.90;99.90;;;;;;4986986;28;19935;-79
2022/09/12 10:02:25;;;;;;;;;;;20.10;99.90;;;;;;4996810;28;19929;-78
2022/09/12 10:04:58;;;;;;;;;;;20.20;99.90;;;;;;4977671;28;19930;-78
2022/09/12 10:07:25;;;;;;;;;;;20.30;99.90;;;;;;5001002;28;19986;-79
2022/09/12 10:10:05;;;;;;;;;;;20.40;99.90;;;;;;4989976;28;19929;-80
2022/09/12 10:12:31;;;;;;;;;;;20.50;99.90;;;;;;4984438;28;19925;-79
2022/09/12 10:14:59;;;;;;;;;;;20.60;99.90;;;;;;4973608;28;19926;-77
2022/09/12 10:17:30;;;;;;;;;;;20.70;99.90;;;;;;4986628;28;19926;-79
2022/09/12 10:19:56;;;;;;;;;;;20.80;99.90;;;;;;4984250;28;20012;-77
2022/09/12 10:22:25;;;;;;;;;;;21.00;99.90;;;;;;4971185;28;19934;-80
2022/09/12 10:24:56;;;;;;;;;;;21.20;99.90;;;;;;4985637;28;20578;-79
2022/09/12 10:27:23;;;;;;;;;;;21.40;99.90;;;;;;4972636;28;19971;-80
2022/09/12 10:29:53;;;;;;;;;;;21.60;99.90;;;;;;4973060;28;19968;-80
2022/09/12 10:32:25;;;;;;;;;;;21.60;99.90;;;;;;4987271;28;20033;-79
2022/09/12 10:34:53;;;;;;;;;;;21.60;99.90;;;;;;4988011;28;20003;-81
2022/09/12 10:37:22;;;;;;;;;;;21.70;99.90;;;;;;4973495;28;19932;-78
2022/09/12 10:39:52;;;;;;;;;;;21.80;99.90;;;;;;4973051;28;19944;-77
2022/09/12 10:42:38;;;;;;;;;;;21.90;99.90;;;;;;4989770;28;19971;-80
2022/09/12 10:45:05;;;;;;;;;;;22.00;99.90;;;;;;4971915;28;20008;-78
2022/09/12 10:47:31;;;;;;;;;;;22.20;99.90;;;;;;4987838;28;19930;-79
2022/09/12 10:50:17;;;;;;;;;;;22.40;99.90;;;;;;4954138;28;19929;-80
2022/09/12 10:52:43;;;;;;;;;;;22.50;99.90;;;;;;4971005;28;20016;-80
2022/09/12 10:55:13;;;;;;;;;;;22.80;99.90;;;;;;4973461;28;20020;-78
2022/09/12 10:57:42;;;;;;;;;;;22.80;99.90;;;;;;4973309;28;19934;-77
2022/09/12 11:00:26;;;;;;;;;;;22.80;99.90;;;;;;4969668;28;19948;-78
2022/09/12 11:02:58;;;;;;;;;;;23.00;99.90;;;;;;4965780;28;19980;-79
2022/09/12 11:05:36;;;;;;;;;;;23.20;99.90;;;;;;4979517;28;19933;-78
2022/09/12 11:08:02;;;;;;;;;;;;;;;;;;4957141;28;20689;-78
2022/09/12 11:10:34;;;;;;;;;;;23.40;99.90;;;;;;4978221;28;19929;-79
2022/09/12 11:13:00;;;;;;;;;;;;;;;;;;4975551;28;19976;-78
2022/09/12 11:15:47;;;;;;;;;;;23.60;99.90;;;;;;4979280;28;20442;-77
2022/09/12 11:18:46;;;;;;;;;;;23.90;99.90;;;;;;4957635;28;19930;-77
2022/09/12 11:21:24;;;;;;;;;;;23.60;99.90;;;;;;4926891;28;20000;-77
2022/09/12 11:23:50;;;;;;;;;;;;;;;;;;4973949;28;19969;-77
2022/09/12 11:26:17;;;;;;;;;;;;;;;;;;4954938;28;19941;-78
2022/09/12 11:28:51;;;;;;;;;;;24.10;99.90;;;;;;4976092;28;20376;-78
2022/09/12 11:31:36;;;;;;;;;;;24.00;99.90;;;;;;4975726;28;20373;-79
2022/09/12 11:34:08;;;;;;;;;;;23.70;99.90;;;;;;4956012;28;19936;-78
2022/09/12 11:36:46;;;;;;;;;;;23.90;99.90;;;;;;4974895;28;19930;-78
2022/09/12 11:39:25;;;;;;;;;;;24.00;99.90;;;;;;4959596;28;20392;-81
2022/09/12 11:41:55;;;;;;;;;;;23.90;99.90;;;;;;4981496;28;20140;-80
2022/09/12 11:44:24;;;;;;;;;;;24.20;99.90;;;;;;4978437;28;19930;-80
2022/09/12 11:46:50;;;;;;;;;;;24.20;99.90;;;;;;4957220;28;19952;-78
2022/09/12 11:49:25;;;;;;;;;;;24.10;99.90;;;;;;4946076;28;19929;-77
2022/09/12 11:51:57;;;;;;;;;;;24.20;99.90;;;;;;4992424;28;19988;-78
2022/09/12 11:54:33;;;;;;;;;;;24.20;99.90;;;;;;4959364;28;20052;-79
2022/09/12 11:57:06;;;;;;;;;;;24.20;99.90;;;;;;4955619;28;19930;-77
2022/09/12 11:59:38;;;;;;;;;;;24.10;99.90;;;;;;4960733;28;19929;-79
2022/09/12 12:02:04;;;;;;;;;;;;;;;;;;4957106;28;19939;-79
2022/09/12 12:04:42;;;;;;;;;;;24.20;99.90;;;;;;4960294;28;19948;-79
2022/09/12 12:07:10;;;;;;;;;;;24.00;99.90;;;;;;4977731;28;20590;-79
2022/09/12 12:09:48;;;;;;;;;;;23.70;99.90;;;;;;4897585;28;2156956;-78
2022/09/12 12:12:16;;;;;;;;;;;23.60;99.90;;;;;;4955791;28;19984;-78
2022/09/12 12:14:44;;;;;;;;;;;23.50;99.90;;;;;;4981285;28;19939;-79
2022/09/12 12:17:14;;;;;;;;;;;23.40;99.90;;;;;;4958542;28;19933;-81
2022/09/12 12:19:40;;;;;;;;;;;23.40;99.90;;;;;;4958775;28;20348;-78
2022/09/12 12:22:11;;;;;;;;;;;23.50;99.90;;;;;;4965504;28;19941;-78
2022/09/12 12:24:53;;;;;;;;;;;23.20;99.90;;;;;;4979024;28;19941;-79
2022/09/12 12:27:38;;;;;;;;;;;23.20;99.90;;;;;;4974576;28;20454;-78
2022/09/12 12:30:24;;;;;;;;;;;23.10;99.90;;;;;;4976407;28;20654;-80
2022/09/12 12:32:50;;;;;;;;;;;23.20;99.90;;;;;;4959481;28;19934;-77
2022/09/12 12:35:36;;;;;;;;;;;23.30;99.90;;;;;;4948466;28;19934;-79
2022/09/12 12:38:03;;;;;;;;;;;23.40;99.90;;;;;;4981475;28;19944;-78
2022/09/12 12:40:29;;;;;;;;;;;23.40;99.90;;;;;;4961349;28;19984;-80
2022/09/12 12:42:55;;;;;;;;;;;23.40;99.90;;;;;;4964082;28;19941;-79
2022/09/12 12:45:27;;;;;;;;;;;23.40;99.90;;;;;;4974570;28;19930;-82
2022/09/12 12:47:54;;;;;;;;;;;23.30;99.90;;;;;;4964505;28;19948;-78
2022/09/12 12:50:25;;;;;;;;;;;23.20;99.90;;;;;;4960758;28;19929;-81
2022/09/12 12:53:14;;;;;;;;;;;23.20;99.90;;;;;;4975624;28;19937;-80
2022/09/12 12:55:43;;;;;;;;;;;23.30;99.90;;;;;;4974499;28;20436;-80
2022/09/12 12:58:28;;;;;;;;;;;23.20;99.90;;;;;;4963255;28;20401;-80
2022/09/12 13:01:06;;;;;;;;;;;23.20;99.90;;;;;;4962881;28;20749;-80
2022/09/12 13:03:32;;;;;;;;;;;23.20;99.90;;;;;;4977582;28;20020;-80
2022/09/12 13:06:00;;;;;;;;;;;23.10;99.90;;;;;;4948030;28;20317;-79
2022/09/12 13:08:27;;;;;;;;;;;23.10;99.90;;;;;;4967155;28;19985;-79
2022/09/12 13:10:56;;;;;;;;;;;23.10;99.90;;;;;;4998362;28;19936;-82
2022/09/12 13:13:25;;;;;;;;;;;23.20;99.90;;;;;;4976650;28;19930;-80
2022/09/12 13:15:51;;;;;;;;;;;23.20;99.90;;;;;;4997221;28;19956;-78
2022/09/12 13:18:19;;;;;;;;;;;23.20;99.90;;;;;;4968857;28;19944;-79
2022/09/12 13:20:54;;;;;;;;;;;23.30;99.90;;;;;;4998868;28;19973;-80
2022/09/12 13:23:22;;;;;;;;;;;23.30;99.90;;;;;;4997685;28;19929;-80
2022/09/12 13:25:52;;;;;;;;;;;23.30;99.90;;;;;;5002693;28;19936;-79
2022/09/12 13:28:18;;;;;;;;;;;23.30;99.90;;;;;;4985834;28;19929;-78
2022/09/12 13:30:54;;;;;;;;;;;23.20;99.90;;;;;;4995173;28;20687;-80
2022/09/12 13:33:28;;;;;;;;;;;23.20;99.90;;;;;;4991915;28;20806;-80
2022/09/12 13:36:16;;;;;;;;;;;23.20;99.90;;;;;;5009831;28;20351;-79
2022/09/12 13:38:42;;;;;;;;;;;23.20;99.90;;;;;;4974559;28;20325;-79
2022/09/12 13:41:20;;;;;;;;;;;23.10;99.90;;;;;;4977917;28;19929;-82
2022/09/12 13:43:46;;;;;;;;;;;23.10;99.90;;;;;;4983754;28;19929;-79
2022/09/12 13:46:15;;;;;;;;;;;23.00;99.90;;;;;;5001177;28;19933;-79
2022/09/12 13:48:41;;;;;;;;;;;23.00;99.90;;;;;;4984492;28;19932;-83
2022/09/12 13:51:14;;;;;;;;;;;22.90;99.90;;;;;;5006089;28;19960;-79
2022/09/12 13:53:45;;;;;;;;;;;22.90;99.90;;;;;;4984084;28;19932;-80
2022/09/12 13:56:18;;;;;;;;;;;22.80;99.90;;;;;;4988221;28;19996;-81
2022/09/12 13:58:55;;;;;;;;;;;22.90;99.90;;;;;;4998871;28;19929;-80
2022/09/12 14:01:22;;;;;;;;;;;22.80;99.90;;;;;;4988629;28;19925;-81
2022/09/12 14:06:44;;;;;;;;;;;22.80;99.90;;;;;;5003243;28;20330;-81
2022/09/12 14:09:17;;;;;;;;;;;22.80;99.90;;;;;;4991747;28;19933;-80
2022/09/12 14:11:43;;;;;;;;;;;22.70;99.90;;;;;;5005810;28;19964;-79
2022/09/12 14:14:26;;;;;;;;;;;22.70;99.90;;;;;;4987706;28;19957;-79
2022/09/12 14:16:53;;;;;;;;;;;22.70;99.90;;;;;;4987301;28;19925;-80
2022/09/12 14:19:21;;;;;;;;;;;22.70;99.90;;;;;;4972989;28;20028;-80
2022/09/12 14:21:46;;;;;;;;;;;22.60;99.90;;;;;;4998695;28;19984;-80
2022/09/12 14:24:13;;;;;;;;;;;22.50;99.90;;;;;;5003083;28;19929;-83
2022/09/12 14:26:41;;;;;;;;;;;22.50;99.90;;;;;;4985984;28;19929;-79
2022/09/12 14:29:12;;;;;;;;;;;22.40;99.90;;;;;;4995442;28;19929;-80
2022/09/12 14:31:38;;;;;;;;;;;22.40;99.90;;;;;;4995612;28;19929;-79
2022/09/12 14:34:12;;;;;;;;;;;22.30;99.90;;;;;;4983802;28;20396;-78
2022/09/12 14:36:49;;;;;;;;;;;22.30;99.90;;;;;;4986294;28;19939;-79
2022/09/12 14:39:24;;;;;;;;;;;22.30;99.90;;;;;;4976937;28;21256;-80
2022/09/12 14:41:50;;;;;;;;;;;22.20;99.90;;;;;;4993852;28;20530;-79
2022/09/12 14:44:26;;;;;;;;;;;22.30;99.90;;;;;;5003318;28;19976;-79
2022/09/12 14:46:52;;;;;;;;;;;22.30;99.90;;;;;;4995547;28;19980;-78
2022/09/12 14:49:28;;;;;;;;;;;22.20;99.90;;;;;;4996558;28;19938;-81
2022/09/12 14:51:54;;;;;;;;;;;22.20;99.90;;;;;;4997506;28;19930;-81
2022/09/12 14:54:26;;;;;;;;;;;22.20;99.90;;;;;;5001511;28;19956;-80
2022/09/12 14:56:59;;;;;;;;;;;22.20;99.90;;;;;;4982306;28;19925;-80
2022/09/12 14:59:30;;;;;;;;;;;22.20;99.90;;;;;;4979164;28;19939;-79
2022/09/12 15:02:15;;;;;;;;;;;22.20;99.90;;;;;;5000095;28;20659;-80
2022/09/12 15:04:46;;;;;;;;;;;22.20;99.90;;;;;;4975340;28;20888;-80